sensor_id;sensor_type;location;lat;lon;timestamp;P1;durP1;ratioP1;P2;durP2;ratioP2
53781;SDS011;39692;53.114;7.060;2022-07-05T00:00:41;5.55;;;4.40;;
53781;SDS011;39692;53.114;7.060;2022-07-05T00:03:07;4.72;;;3.80;;
53781;SDS011;39692;53.114;7.060;2022-07-05T00:05:33;6.70;;;4.47;;
53781;SDS011;39692;53.114;7.060;2022-07-05T00:08:00;4.85;;;3.80;;
53781;SDS011;39692;53.114;7.060;2022-07-05T00:10:26;6.50;;;4.15;;
53781;SDS011;39692;53.114;7.060;2022-07-05T00:12:51;5.38;;;4.32;;
53781;SDS011;39692;53.114;7.060;2022-07-05T00:15:17;5.13;;;4.43;;
53781;SDS011;39692;53.114;7.060;2022-07-05T00:17:43;4.80;;;4.30;;
53781;SDS011;39692;53.114;7.060;2022-07-05T00:20:09;5.72;;;4.43;;
53781;SDS011;39692;53.114;7.060;2022-07-05T00:22:35;5.82;;;4.93;;
53781;SDS011;39692;53.114;7.060;2022-07-05T00:25:01;9.18;;;4.65;;
53781;SDS011;39692;53.114;7.060;2022-07-05T00:27:27;6.05;;;3.97;;
53781;SDS011;39692;53.114;7.060;2022-07-05T00:29:52;5.85;;;4.35;;
53781;SDS011;39692;53.114;7.060;2022-07-05T00:32:18;6.05;;;4.43;;
53781;SDS011;39692;53.114;7.060;2022-07-05T00:34:44;5.25;;;4.22;;
53781;SDS011;39692;53.114;7.060;2022-07-05T00:37:09;5.47;;;4.28;;
53781;SDS011;39692;53.114;7.060;2022-07-05T00:39:35;6.80;;;4.30;;
53781;SDS011;39692;53.114;7.060;2022-07-05T00:42:01;6.32;;;4.55;;
53781;SDS011;39692;53.114;7.060;2022-07-05T00:44:31;5.10;;;4.40;;
53781;SDS011;39692;53.114;7.060;2022-07-05T00:47:02;5.13;;;4.32;;
53781;SDS011;39692;53.114;7.060;2022-07-05T00:49:29;6.05;;;4.38;;
53781;SDS011;39692;53.114;7.060;2022-07-05T00:51:55;5.60;;;4.10;;
53781;SDS011;39692;53.114;7.060;2022-07-05T00:54:22;9.48;;;4.57;;
53781;SDS011;39692;53.114;7.060;2022-07-05T00:56:47;4.82;;;4.28;;
53781;SDS011;39692;53.114;7.060;2022-07-05T00:59:13;5.72;;;4.65;;
53781;SDS011;39692;53.114;7.060;2022-07-05T01:01:39;6.20;;;5.03;;
53781;SDS011;39692;53.114;7.060;2022-07-05T01:04:05;5.35;;;4.30;;
53781;SDS011;39692;53.114;7.060;2022-07-05T01:06:30;6.60;;;5.30;;
53781;SDS011;39692;53.114;7.060;2022-07-05T01:08:57;4.88;;;4.22;;
53781;SDS011;39692;53.114;7.060;2022-07-05T01:11:23;5.68;;;4.30;;
53781;SDS011;39692;53.114;7.060;2022-07-05T01:13:49;5.10;;;4.60;;
53781;SDS011;39692;53.114;7.060;2022-07-05T01:16:15;7.93;;;5.38;;
53781;SDS011;39692;53.114;7.060;2022-07-05T01:18:41;8.20;;;4.95;;
53781;SDS011;39692;53.114;7.060;2022-07-05T01:21:09;5.95;;;4.72;;
53781;SDS011;39692;53.114;7.060;2022-07-05T01:23:38;6.38;;;5.05;;
53781;SDS011;39692;53.114;7.060;2022-07-05T01:26:04;4.95;;;4.43;;
53781;SDS011;39692;53.114;7.060;2022-07-05T01:28:32;7.00;;;4.95;;
53781;SDS011;39692;53.114;7.060;2022-07-05T01:30:59;5.72;;;5.07;;
53781;SDS011;39692;53.114;7.060;2022-07-05T01:33:27;7.07;;;4.88;;
53781;SDS011;39692;53.114;7.060;2022-07-05T01:35:53;5.05;;;4.40;;
53781;SDS011;39692;53.114;7.060;2022-07-05T01:38:20;6.18;;;5.13;;
53781;SDS011;39692;53.114;7.060;2022-07-05T01:40:46;6.43;;;5.10;;
53781;SDS011;39692;53.114;7.060;2022-07-05T01:43:15;5.57;;;5.05;;
53781;SDS011;39692;53.114;7.060;2022-07-05T01:45:41;7.32;;;5.15;;
53781;SDS011;39692;53.114;7.060;2022-07-05T01:48:12;8.25;;;5.53;;
53781;SDS011;39692;53.114;7.060;2022-07-05T01:50:47;5.70;;;4.88;;
53781;SDS011;39692;53.114;7.060;2022-07-05T01:55:47;6.90;;;5.43;;
53781;SDS011;39692;53.114;7.060;2022-07-05T01:58:13;6.07;;;5.38;;
53781;SDS011;39692;53.114;7.060;2022-07-05T02:00:45;7.00;;;5.70;;
53781;SDS011;39692;53.114;7.060;2022-07-05T02:03:16;5.75;;;5.07;;
53781;SDS011;39692;53.114;7.060;2022-07-05T02:05:42;6.45;;;4.88;;
53781;SDS011;39692;53.114;7.060;2022-07-05T02:08:09;6.72;;;5.38;;
53781;SDS011;39692;53.114;7.060;2022-07-05T02:10:36;5.85;;;5.07;;
53781;SDS011;39692;53.114;7.060;2022-07-05T02:13:04;6.00;;;5.38;;
53781;SDS011;39692;53.114;7.060;2022-07-05T02:15:33;5.55;;;5.00;;
53781;SDS011;39692;53.114;7.060;2022-07-05T02:18:03;6.20;;;5.03;;
53781;SDS011;39692;53.114;7.060;2022-07-05T02:20:30;7.15;;;5.25;;
53781;SDS011;39692;53.114;7.060;2022-07-05T02:22:57;5.57;;;4.63;;
53781;SDS011;39692;53.114;7.060;2022-07-05T02:25:23;7.10;;;4.63;;
53781;SDS011;39692;53.114;7.060;2022-07-05T02:27:50;5.82;;;4.63;;
53781;SDS011;39692;53.114;7.060;2022-07-05T02:30:18;7.47;;;5.00;;
53781;SDS011;39692;53.114;7.060;2022-07-05T02:32:44;7.85;;;4.82;;
53781;SDS011;39692;53.114;7.060;2022-07-05T02:35:10;5.78;;;5.18;;
53781;SDS011;39692;53.114;7.060;2022-07-05T02:37:37;5.80;;;5.03;;
53781;SDS011;39692;53.114;7.060;2022-07-05T02:40:05;9.50;;;4.88;;
53781;SDS011;39692;53.114;7.060;2022-07-05T02:42:32;7.22;;;5.03;;
53781;SDS011;39692;53.114;7.060;2022-07-05T02:44:58;6.13;;;4.80;;
53781;SDS011;39692;53.114;7.060;2022-07-05T02:47:23;7.55;;;5.40;;
53781;SDS011;39692;53.114;7.060;2022-07-05T02:49:49;6.72;;;5.32;;
53781;SDS011;39692;53.114;7.060;2022-07-05T02:52:15;7.63;;;5.00;;
53781;SDS011;39692;53.114;7.060;2022-07-05T02:54:41;5.97;;;4.90;;
53781;SDS011;39692;53.114;7.060;2022-07-05T02:57:07;7.68;;;4.53;;
53781;SDS011;39692;53.114;7.060;2022-07-05T02:59:32;6.60;;;5.15;;
53781;SDS011;39692;53.114;7.060;2022-07-05T03:01:58;7.97;;;5.53;;
53781;SDS011;39692;53.114;7.060;2022-07-05T03:04:23;6.50;;;5.20;;
53781;SDS011;39692;53.114;7.060;2022-07-05T03:06:49;7.43;;;5.85;;
53781;SDS011;39692;53.114;7.060;2022-07-05T03:09:15;7.13;;;5.22;;
53781;SDS011;39692;53.114;7.060;2022-07-05T03:11:41;7.70;;;5.45;;
53781;SDS011;39692;53.114;7.060;2022-07-05T03:14:06;7.45;;;5.82;;
53781;SDS011;39692;53.114;7.060;2022-07-05T03:16:32;6.35;;;5.57;;
53781;SDS011;39692;53.114;7.060;2022-07-05T03:18:58;6.13;;;5.32;;
53781;SDS011;39692;53.114;7.060;2022-07-05T03:21:24;7.50;;;5.53;;
53781;SDS011;39692;53.114;7.060;2022-07-05T03:23:50;6.78;;;5.05;;
53781;SDS011;39692;53.114;7.060;2022-07-05T03:26:15;7.18;;;5.38;;
53781;SDS011;39692;53.114;7.060;2022-07-05T03:28:41;5.53;;;5.03;;
53781;SDS011;39692;53.114;7.060;2022-07-05T03:31:07;6.47;;;4.95;;
53781;SDS011;39692;53.114;7.060;2022-07-05T03:33:32;5.85;;;4.70;;
53781;SDS011;39692;53.114;7.060;2022-07-05T03:35:58;6.15;;;4.82;;
53781;SDS011;39692;53.114;7.060;2022-07-05T03:38:24;6.07;;;4.97;;
53781;SDS011;39692;53.114;7.060;2022-07-05T03:40:49;5.82;;;5.05;;
53781;SDS011;39692;53.114;7.060;2022-07-05T03:43:15;6.93;;;5.60;;
53781;SDS011;39692;53.114;7.060;2022-07-05T03:45:41;7.32;;;5.40;;
53781;SDS011;39692;53.114;7.060;2022-07-05T03:48:07;7.40;;;5.38;;
53781;SDS011;39692;53.114;7.060;2022-07-05T03:50:32;6.57;;;5.25;;
53781;SDS011;39692;53.114;7.060;2022-07-05T03:52:58;6.72;;;5.47;;
53781;SDS011;39692;53.114;7.060;2022-07-05T03:55:23;6.32;;;4.85;;
53781;SDS011;39692;53.114;7.060;2022-07-05T03:57:49;6.93;;;5.10;;
53781;SDS011;39692;53.114;7.060;2022-07-05T04:00:15;6.82;;;5.47;;
53781;SDS011;39692;53.114;7.060;2022-07-05T04:02:41;5.60;;;4.65;;
53781;SDS011;39692;53.114;7.060;2022-07-05T04:05:06;6.55;;;5.30;;
53781;SDS011;39692;53.114;7.060;2022-07-05T04:07:33;8.68;;;5.00;;
53781;SDS011;39692;53.114;7.060;2022-07-05T04:09:59;5.78;;;5.07;;
53781;SDS011;39692;53.114;7.060;2022-07-05T04:12:25;6.18;;;5.30;;
53781;SDS011;39692;53.114;7.060;2022-07-05T04:14:51;6.90;;;4.95;;
53781;SDS011;39692;53.114;7.060;2022-07-05T04:17:17;5.80;;;5.20;;
53781;SDS011;39692;53.114;7.060;2022-07-05T04:19:42;6.60;;;5.00;;
53781;SDS011;39692;53.114;7.060;2022-07-05T04:22:08;7.05;;;4.88;;
53781;SDS011;39692;53.114;7.060;2022-07-05T04:24:34;6.85;;;5.22;;
53781;SDS011;39692;53.114;7.060;2022-07-05T04:27:20;6.45;;;5.38;;
53781;SDS011;39692;53.114;7.060;2022-07-05T04:29:45;5.50;;;4.90;;
53781;SDS011;39692;53.114;7.060;2022-07-05T04:32:11;5.85;;;5.25;;
53781;SDS011;39692;53.114;7.060;2022-07-05T04:34:37;7.13;;;5.68;;
53781;SDS011;39692;53.114;7.060;2022-07-05T04:37:03;6.88;;;5.38;;
53781;SDS011;39692;53.114;7.060;2022-07-05T04:39:28;7.43;;;5.55;;
53781;SDS011;39692;53.114;7.060;2022-07-05T04:41:54;8.23;;;6.28;;
53781;SDS011;39692;53.114;7.060;2022-07-05T04:44:20;7.20;;;5.85;;
53781;SDS011;39692;53.114;7.060;2022-07-05T04:46:45;9.05;;;6.65;;
53781;SDS011;39692;53.114;7.060;2022-07-05T04:49:11;7.30;;;6.25;;
53781;SDS011;39692;53.114;7.060;2022-07-05T04:51:37;7.30;;;6.13;;
53781;SDS011;39692;53.114;7.060;2022-07-05T04:54:02;7.55;;;6.78;;
53781;SDS011;39692;53.114;7.060;2022-07-05T04:56:28;10.07;;;7.05;;
53781;SDS011;39692;53.114;7.060;2022-07-05T04:58:54;8.45;;;6.22;;
53781;SDS011;39692;53.114;7.060;2022-07-05T05:01:19;8.07;;;6.20;;
53781;SDS011;39692;53.114;7.060;2022-07-05T05:03:45;8.77;;;6.13;;
53781;SDS011;39692;53.114;7.060;2022-07-05T05:06:10;8.65;;;7.00;;
53781;SDS011;39692;53.114;7.060;2022-07-05T05:08:38;7.35;;;6.45;;
53781;SDS011;39692;53.114;7.060;2022-07-05T05:11:04;10.10;;;7.05;;
53781;SDS011;39692;53.114;7.060;2022-07-05T05:13:30;7.90;;;7.10;;
53781;SDS011;39692;53.114;7.060;2022-07-05T05:15:56;8.50;;;7.28;;
53781;SDS011;39692;53.114;7.060;2022-07-05T05:18:22;7.85;;;7.05;;
53781;SDS011;39692;53.114;7.060;2022-07-05T05:20:52;8.30;;;7.03;;
53781;SDS011;39692;53.114;7.060;2022-07-05T05:23:19;9.70;;;7.47;;
53781;SDS011;39692;53.114;7.060;2022-07-05T05:25:45;10.85;;;7.20;;
53781;SDS011;39692;53.114;7.060;2022-07-05T05:28:10;8.60;;;6.95;;
53781;SDS011;39692;53.114;7.060;2022-07-05T05:30:37;8.02;;;6.97;;
53781;SDS011;39692;53.114;7.060;2022-07-05T05:33:03;8.48;;;6.90;;
53781;SDS011;39692;53.114;7.060;2022-07-05T05:35:29;10.00;;;7.13;;
53781;SDS011;39692;53.114;7.060;2022-07-05T05:37:56;9.07;;;6.72;;
53781;SDS011;39692;53.114;7.060;2022-07-05T05:40:22;9.50;;;6.18;;
53781;SDS011;39692;53.114;7.060;2022-07-05T05:42:49;8.25;;;6.75;;
53781;SDS011;39692;53.114;7.060;2022-07-05T05:45:16;7.75;;;6.72;;
53781;SDS011;39692;53.114;7.060;2022-07-05T05:47:43;8.18;;;6.35;;
53781;SDS011;39692;53.114;7.060;2022-07-05T05:50:14;8.82;;;6.68;;
53781;SDS011;39692;53.114;7.060;2022-07-05T05:52:43;7.65;;;6.38;;
53781;SDS011;39692;53.114;7.060;2022-07-05T05:55:08;8.65;;;6.10;;
53781;SDS011;39692;53.114;7.060;2022-07-05T05:57:34;6.85;;;5.68;;
53781;SDS011;39692;53.114;7.060;2022-07-05T06:00:04;6.95;;;6.20;;
53781;SDS011;39692;53.114;7.060;2022-07-05T06:02:31;6.80;;;6.03;;
53781;SDS011;39692;53.114;7.060;2022-07-05T06:04:57;7.18;;;5.72;;
53781;SDS011;39692;53.114;7.060;2022-07-05T06:07:22;8.98;;;5.80;;
53781;SDS011;39692;53.114;7.060;2022-07-05T06:09:48;6.05;;;5.45;;
53781;SDS011;39692;53.114;7.060;2022-07-05T06:12:14;7.40;;;4.72;;
53781;SDS011;39692;53.114;7.060;2022-07-05T06:14:40;6.20;;;5.07;;
53781;SDS011;39692;53.114;7.060;2022-07-05T06:17:05;6.63;;;4.85;;
53781;SDS011;39692;53.114;7.060;2022-07-05T06:19:31;5.93;;;4.32;;
53781;SDS011;39692;53.114;7.060;2022-07-05T06:21:57;5.75;;;3.60;;
53781;SDS011;39692;53.114;7.060;2022-07-05T06:24:22;4.60;;;3.50;;
53781;SDS011;39692;53.114;7.060;2022-07-05T06:26:48;4.43;;;2.67;;
53781;SDS011;39692;53.114;7.060;2022-07-05T06:29:14;4.75;;;2.50;;
53781;SDS011;39692;53.114;7.060;2022-07-05T06:31:39;4.10;;;2.78;;
53781;SDS011;39692;53.114;7.060;2022-07-05T06:34:05;5.13;;;2.85;;
53781;SDS011;39692;53.114;7.060;2022-07-05T06:36:30;4.93;;;3.10;;
53781;SDS011;39692;53.114;7.060;2022-07-05T06:38:56;3.83;;;2.72;;
53781;SDS011;39692;53.114;7.060;2022-07-05T06:41:22;4.35;;;2.80;;
53781;SDS011;39692;53.114;7.060;2022-07-05T06:43:47;4.82;;;3.15;;
53781;SDS011;39692;53.114;7.060;2022-07-05T06:46:13;7.20;;;3.00;;
53781;SDS011;39692;53.114;7.060;2022-07-05T06:48:39;5.28;;;2.55;;
53781;SDS011;39692;53.114;7.060;2022-07-05T06:51:04;3.95;;;2.42;;
53781;SDS011;39692;53.114;7.060;2022-07-05T06:53:31;5.18;;;2.20;;
53781;SDS011;39692;53.114;7.060;2022-07-05T06:55:56;5.80;;;1.90;;
53781;SDS011;39692;53.114;7.060;2022-07-05T06:58:22;6.25;;;2.50;;
53781;SDS011;39692;53.114;7.060;2022-07-05T07:00:48;4.90;;;2.45;;
53781;SDS011;39692;53.114;7.060;2022-07-05T07:03:14;3.85;;;1.88;;
53781;SDS011;39692;53.114;7.060;2022-07-05T07:05:40;4.35;;;1.60;;
53781;SDS011;39692;53.114;7.060;2022-07-05T07:08:06;4.18;;;1.65;;
53781;SDS011;39692;53.114;7.060;2022-07-05T07:10:50;3.08;;;1.40;;
53781;SDS011;39692;53.114;7.060;2022-07-05T07:13:16;2.70;;;1.35;;
53781;SDS011;39692;53.114;7.060;2022-07-05T07:15:41;5.22;;;1.40;;
53781;SDS011;39692;53.114;7.060;2022-07-05T07:18:07;3.10;;;1.30;;
53781;SDS011;39692;53.114;7.060;2022-07-05T07:20:33;3.45;;;1.15;;
53781;SDS011;39692;53.114;7.060;2022-07-05T07:22:58;2.58;;;1.30;;
53781;SDS011;39692;53.114;7.060;2022-07-05T07:25:24;2.70;;;1.10;;
53781;SDS011;39692;53.114;7.060;2022-07-05T07:27:51;4.07;;;1.45;;
53781;SDS011;39692;53.114;7.060;2022-07-05T07:30:19;3.40;;;1.65;;
53781;SDS011;39692;53.114;7.060;2022-07-05T07:32:46;3.58;;;1.27;;
53781;SDS011;39692;53.114;7.060;2022-07-05T07:35:13;3.72;;;1.40;;
53781;SDS011;39692;53.114;7.060;2022-07-05T07:37:39;3.47;;;1.47;;
53781;SDS011;39692;53.114;7.060;2022-07-05T07:40:05;4.63;;;1.00;;
53781;SDS011;39692;53.114;7.060;2022-07-05T07:42:31;2.95;;;1.55;;
53781;SDS011;39692;53.114;7.060;2022-07-05T07:44:57;3.28;;;1.23;;
53781;SDS011;39692;53.114;7.060;2022-07-05T07:47:24;3.13;;;1.23;;
53781;SDS011;39692;53.114;7.060;2022-07-05T07:49:49;5.15;;;1.30;;
53781;SDS011;39692;53.114;7.060;2022-07-05T07:52:15;4.47;;;1.20;;
53781;SDS011;39692;53.114;7.060;2022-07-05T07:54:41;4.32;;;1.17;;
53781;SDS011;39692;53.114;7.060;2022-07-05T07:57:07;2.60;;;1.00;;
53781;SDS011;39692;53.114;7.060;2022-07-05T07:59:33;2.90;;;1.10;;
53781;SDS011;39692;53.114;7.060;2022-07-05T08:01:59;2.13;;;1.10;;
53781;SDS011;39692;53.114;7.060;2022-07-05T08:04:25;2.78;;;0.93;;
53781;SDS011;39692;53.114;7.060;2022-07-05T08:06:51;2.58;;;1.13;;
53781;SDS011;39692;53.114;7.060;2022-07-05T08:09:17;1.88;;;0.80;;
53781;SDS011;39692;53.114;7.060;2022-07-05T08:11:44;3.15;;;1.10;;
53781;SDS011;39692;53.114;7.060;2022-07-05T08:14:11;5.18;;;1.10;;
53781;SDS011;39692;53.114;7.060;2022-07-05T08:16:37;3.42;;;1.30;;
53781;SDS011;39692;53.114;7.060;2022-07-05T08:19:02;3.95;;;1.55;;
53781;SDS011;39692;53.114;7.060;2022-07-05T08:24:14;3.63;;;1.00;;
53781;SDS011;39692;53.114;7.060;2022-07-05T08:26:40;3.08;;;0.70;;
53781;SDS011;39692;53.114;7.060;2022-07-05T08:29:07;2.53;;;1.05;;
53781;SDS011;39692;53.114;7.060;2022-07-05T08:31:36;3.47;;;1.15;;
53781;SDS011;39692;53.114;7.060;2022-07-05T08:34:04;3.85;;;1.00;;
53781;SDS011;39692;53.114;7.060;2022-07-05T08:36:30;2.25;;;0.93;;
53781;SDS011;39692;53.114;7.060;2022-07-05T08:38:56;5.18;;;0.93;;
53781;SDS011;39692;53.114;7.060;2022-07-05T08:41:22;3.35;;;0.90;;
53781;SDS011;39692;53.114;7.060;2022-07-05T08:43:49;2.50;;;0.93;;
53781;SDS011;39692;53.114;7.060;2022-07-05T08:46:16;5.72;;;1.42;;
53781;SDS011;39692;53.114;7.060;2022-07-05T08:48:44;4.10;;;1.40;;
53781;SDS011;39692;53.114;7.060;2022-07-05T08:51:14;5.30;;;1.35;;
53781;SDS011;39692;53.114;7.060;2022-07-05T08:53:46;5.30;;;1.08;;
53781;SDS011;39692;53.114;7.060;2022-07-05T08:56:13;5.28;;;1.20;;
53781;SDS011;39692;53.114;7.060;2022-07-05T08:58:39;4.53;;;1.00;;
53781;SDS011;39692;53.114;7.060;2022-07-05T09:01:06;3.00;;;1.00;;
53781;SDS011;39692;53.114;7.060;2022-07-05T09:06:08;3.38;;;1.10;;
53781;SDS011;39692;53.114;7.060;2022-07-05T09:08:36;5.18;;;1.17;;
53781;SDS011;39692;53.114;7.060;2022-07-05T09:11:09;3.97;;;1.48;;
53781;SDS011;39692;53.114;7.060;2022-07-05T09:13:40;5.85;;;1.30;;
53781;SDS011;39692;53.114;7.060;2022-07-05T09:16:07;2.70;;;1.02;;
53781;SDS011;39692;53.114;7.060;2022-07-05T09:21:11;2.92;;;0.90;;
53781;SDS011;39692;53.114;7.060;2022-07-05T09:23:37;3.75;;;1.23;;
53781;SDS011;39692;53.114;7.060;2022-07-05T09:26:03;4.07;;;1.30;;
53781;SDS011;39692;53.114;7.060;2022-07-05T09:28:28;4.72;;;1.10;;
53781;SDS011;39692;53.114;7.060;2022-07-05T09:30:54;2.95;;;0.77;;
53781;SDS011;39692;53.114;7.060;2022-07-05T09:33:20;4.28;;;1.08;;
53781;SDS011;39692;53.114;7.060;2022-07-05T09:35:52;3.78;;;0.90;;
53781;SDS011;39692;53.114;7.060;2022-07-05T09:38:22;2.83;;;0.90;;
53781;SDS011;39692;53.114;7.060;2022-07-05T09:43:22;3.25;;;1.05;;
53781;SDS011;39692;53.114;7.060;2022-07-05T09:45:52;2.22;;;0.90;;
53781;SDS011;39692;53.114;7.060;2022-07-05T09:48:22;2.65;;;1.02;;
53781;SDS011;39692;53.114;7.060;2022-07-05T09:50:49;3.45;;;1.23;;
53781;SDS011;39692;53.114;7.060;2022-07-05T09:53:18;4.90;;;1.70;;
53781;SDS011;39692;53.114;7.060;2022-07-05T09:56:01;3.30;;;1.00;;
53781;SDS011;39692;53.114;7.060;2022-07-05T09:58:31;2.72;;;1.00;;
53781;SDS011;39692;53.114;7.060;2022-07-05T10:00:57;3.47;;;1.00;;
53781;SDS011;39692;53.114;7.060;2022-07-05T10:03:23;3.28;;;0.77;;
53781;SDS011;39692;53.114;7.060;2022-07-05T10:05:48;2.30;;;1.10;;
53781;SDS011;39692;53.114;7.060;2022-07-05T10:08:14;2.63;;;0.75;;
53781;SDS011;39692;53.114;7.060;2022-07-05T10:10:42;2.63;;;1.10;;
53781;SDS011;39692;53.114;7.060;2022-07-05T10:13:10;2.58;;;0.80;;
53781;SDS011;39692;53.114;7.060;2022-07-05T10:15:39;3.90;;;1.00;;
53781;SDS011;39692;53.114;7.060;2022-07-05T10:18:11;1.98;;;0.90;;
53781;SDS011;39692;53.114;7.060;2022-07-05T10:20:43;3.40;;;0.98;;
53781;SDS011;39692;53.114;7.060;2022-07-05T10:23:13;1.15;;;0.70;;
53781;SDS011;39692;53.114;7.060;2022-07-05T10:25:41;3.90;;;1.10;;
53781;SDS011;39692;53.114;7.060;2022-07-05T10:28:08;4.63;;;1.02;;
53781;SDS011;39692;53.114;7.060;2022-07-05T10:30:34;2.58;;;0.70;;
53781;SDS011;39692;53.114;7.060;2022-07-05T10:33:01;2.60;;;0.80;;
53781;SDS011;39692;53.114;7.060;2022-07-05T10:35:28;1.23;;;0.68;;
53781;SDS011;39692;53.114;7.060;2022-07-05T10:37:54;2.60;;;0.82;;
53781;SDS011;39692;53.114;7.060;2022-07-05T10:40:21;2.20;;;0.80;;
53781;SDS011;39692;53.114;7.060;2022-07-05T10:42:51;2.17;;;1.10;;
53781;SDS011;39692;53.114;7.060;2022-07-05T10:45:23;3.83;;;0.98;;
53781;SDS011;39692;53.114;7.060;2022-07-05T10:53:22;2.60;;;1.13;;
53781;SDS011;39692;53.114;7.060;2022-07-05T10:55:54;5.55;;;0.93;;
53781;SDS011;39692;53.114;7.060;2022-07-05T10:58:27;2.92;;;0.93;;
53781;SDS011;39692;53.114;7.060;2022-07-05T11:06:26;1.63;;;0.90;;
53781;SDS011;39692;53.114;7.060;2022-07-05T11:11:23;2.90;;;1.15;;
53781;SDS011;39692;53.114;7.060;2022-07-05T11:13:50;4.28;;;1.48;;
53781;SDS011;39692;53.114;7.060;2022-07-05T11:16:19;5.30;;;1.17;;
53781;SDS011;39692;53.114;7.060;2022-07-05T11:18:49;2.27;;;0.97;;
53781;SDS011;39692;53.114;7.060;2022-07-05T11:21:22;2.97;;;1.10;;
53781;SDS011;39692;53.114;7.060;2022-07-05T11:23:48;2.55;;;1.05;;
53781;SDS011;39692;53.114;7.060;2022-07-05T11:26:17;2.75;;;0.85;;
53781;SDS011;39692;53.114;7.060;2022-07-05T11:28:47;3.10;;;1.08;;
53781;SDS011;39692;53.114;7.060;2022-07-05T11:34:13;2.63;;;1.25;;
53781;SDS011;39692;53.114;7.060;2022-07-05T11:36:40;3.55;;;1.15;;
53781;SDS011;39692;53.114;7.060;2022-07-05T11:39:12;3.42;;;1.00;;
53781;SDS011;39692;53.114;7.060;2022-07-05T11:41:48;3.55;;;1.13;;
53781;SDS011;39692;53.114;7.060;2022-07-05T11:44:14;2.47;;;0.90;;
53781;SDS011;39692;53.114;7.060;2022-07-05T11:46:44;2.58;;;1.00;;
53781;SDS011;39692;53.114;7.060;2022-07-05T11:49:10;4.20;;;0.90;;
53781;SDS011;39692;53.114;7.060;2022-07-05T11:51:36;2.42;;;1.00;;
53781;SDS011;39692;53.114;7.060;2022-07-05T11:54:02;1.85;;;0.75;;
53781;SDS011;39692;53.114;7.060;2022-07-05T11:56:28;2.17;;;0.75;;
53781;SDS011;39692;53.114;7.060;2022-07-05T11:58:54;3.47;;;0.90;;
53781;SDS011;39692;53.114;7.060;2022-07-05T12:01:20;6.38;;;1.40;;
53781;SDS011;39692;53.114;7.060;2022-07-05T12:03:52;2.30;;;0.90;;
53781;SDS011;39692;53.114;7.060;2022-07-05T12:06:21;3.83;;;1.00;;
53781;SDS011;39692;53.114;7.060;2022-07-05T12:09:01;3.42;;;1.00;;
53781;SDS011;39692;53.114;7.060;2022-07-05T12:11:28;1.73;;;0.80;;
53781;SDS011;39692;53.114;7.060;2022-07-05T12:14:19;3.58;;;0.95;;
53781;SDS011;39692;53.114;7.060;2022-07-05T12:16:48;3.22;;;0.90;;
53781;SDS011;39692;53.114;7.060;2022-07-05T12:19:24;2.83;;;1.00;;
53781;SDS011;39692;53.114;7.060;2022-07-05T12:21:54;2.28;;;1.25;;
53781;SDS011;39692;53.114;7.060;2022-07-05T12:24:20;2.83;;;1.10;;
53781;SDS011;39692;53.114;7.060;2022-07-05T12:26:47;2.03;;;0.95;;
53781;SDS011;39692;53.114;7.060;2022-07-05T12:29:14;3.20;;;0.80;;
53781;SDS011;39692;53.114;7.060;2022-07-05T12:31:57;2.10;;;1.00;;
53781;SDS011;39692;53.114;7.060;2022-07-05T12:34:27;2.40;;;1.00;;
53781;SDS011;39692;53.114;7.060;2022-07-05T12:36:54;4.10;;;1.20;;
53781;SDS011;39692;53.114;7.060;2022-07-05T12:39:20;3.03;;;1.20;;
53781;SDS011;39692;53.114;7.060;2022-07-05T12:41:46;1.83;;;0.88;;
53781;SDS011;39692;53.114;7.060;2022-07-05T12:44:12;3.05;;;0.80;;
53781;SDS011;39692;53.114;7.060;2022-07-05T12:46:42;2.67;;;1.00;;
53781;SDS011;39692;53.114;7.060;2022-07-05T12:49:09;3.20;;;1.00;;
53781;SDS011;39692;53.114;7.060;2022-07-05T12:51:38;2.03;;;0.95;;
53781;SDS011;39692;53.114;7.060;2022-07-05T12:54:06;5.38;;;1.40;;
53781;SDS011;39692;53.114;7.060;2022-07-05T12:56:52;2.88;;;1.00;;
53781;SDS011;39692;53.114;7.060;2022-07-05T12:59:37;2.80;;;1.00;;
53781;SDS011;39692;53.114;7.060;2022-07-05T13:02:05;5.20;;;1.63;;
53781;SDS011;39692;53.114;7.060;2022-07-05T13:04:31;4.10;;;1.40;;
53781;SDS011;39692;53.114;7.060;2022-07-05T13:06:58;2.95;;;1.10;;
53781;SDS011;39692;53.114;7.060;2022-07-05T13:12:10;4.15;;;1.30;;
53781;SDS011;39692;53.114;7.060;2022-07-05T13:14:46;4.10;;;1.20;;
53781;SDS011;39692;53.114;7.060;2022-07-05T13:17:14;3.90;;;1.30;;
53781;SDS011;39692;53.114;7.060;2022-07-05T13:19:41;3.53;;;1.33;;
53781;SDS011;39692;53.114;7.060;2022-07-05T13:22:08;4.28;;;1.40;;
53781;SDS011;39692;53.114;7.060;2022-07-05T13:24:34;2.38;;;0.93;;
53781;SDS011;39692;53.114;7.060;2022-07-05T13:27:00;2.95;;;1.17;;
53781;SDS011;39692;53.114;7.060;2022-07-05T13:29:27;2.95;;;1.00;;
53781;SDS011;39692;53.114;7.060;2022-07-05T13:31:53;5.20;;;1.00;;
53781;SDS011;39692;53.114;7.060;2022-07-05T13:34:19;4.40;;;1.23;;
53781;SDS011;39692;53.114;7.060;2022-07-05T13:36:48;3.67;;;1.35;;
53781;SDS011;39692;53.114;7.060;2022-07-05T13:39:16;5.75;;;1.13;;
53781;SDS011;39692;53.114;7.060;2022-07-05T13:41:42;3.20;;;1.00;;
53781;SDS011;39692;53.114;7.060;2022-07-05T13:44:08;3.85;;;1.10;;
53781;SDS011;39692;53.114;7.060;2022-07-05T13:46:34;3.38;;;1.00;;
53781;SDS011;39692;53.114;7.060;2022-07-05T13:49:00;4.32;;;1.02;;
53781;SDS011;39692;53.114;7.060;2022-07-05T13:51:25;3.08;;;1.00;;
53781;SDS011;39692;53.114;7.060;2022-07-05T13:53:52;5.32;;;1.05;;
53781;SDS011;39692;53.114;7.060;2022-07-05T13:56:18;5.93;;;1.02;;
53781;SDS011;39692;53.114;7.060;2022-07-05T13:58:43;3.35;;;0.98;;
53781;SDS011;39692;53.114;7.060;2022-07-05T14:01:09;4.60;;;1.00;;
53781;SDS011;39692;53.114;7.060;2022-07-05T14:03:34;3.17;;;1.15;;
53781;SDS011;39692;53.114;7.060;2022-07-05T14:06:00;10.00;;;1.60;;
53781;SDS011;39692;53.114;7.060;2022-07-05T14:08:26;8.13;;;1.13;;
53781;SDS011;39692;53.114;7.060;2022-07-05T14:10:53;5.20;;;1.10;;
53781;SDS011;39692;53.114;7.060;2022-07-05T14:13:23;3.22;;;1.10;;
53781;SDS011;39692;53.114;7.060;2022-07-05T14:15:50;3.60;;;0.90;;
53781;SDS011;39692;53.114;7.060;2022-07-05T14:18:17;3.28;;;0.93;;
53781;SDS011;39692;53.114;7.060;2022-07-05T14:20:44;2.85;;;1.00;;
53781;SDS011;39692;53.114;7.060;2022-07-05T14:23:11;3.25;;;1.13;;
53781;SDS011;39692;53.114;7.060;2022-07-05T14:25:37;2.60;;;0.95;;
53781;SDS011;39692;53.114;7.060;2022-07-05T14:28:03;2.28;;;0.93;;
53781;SDS011;39692;53.114;7.060;2022-07-05T14:30:33;3.85;;;1.23;;
53781;SDS011;39692;53.114;7.060;2022-07-05T14:32:59;3.75;;;0.88;;
53781;SDS011;39692;53.114;7.060;2022-07-05T14:35:25;3.47;;;0.80;;
53781;SDS011;39692;53.114;7.060;2022-07-05T14:37:52;2.25;;;0.90;;
53781;SDS011;39692;53.114;7.060;2022-07-05T14:40:17;1.75;;;0.80;;
53781;SDS011;39692;53.114;7.060;2022-07-05T14:42:44;2.58;;;1.00;;
53781;SDS011;39692;53.114;7.060;2022-07-05T14:45:09;2.85;;;0.90;;
53781;SDS011;39692;53.114;7.060;2022-07-05T14:47:35;2.33;;;0.90;;
53781;SDS011;39692;53.114;7.060;2022-07-05T14:50:01;4.88;;;1.10;;
53781;SDS011;39692;53.114;7.060;2022-07-05T14:52:27;2.15;;;0.90;;
53781;SDS011;39692;53.114;7.060;2022-07-05T14:54:54;1.75;;;0.85;;
53781;SDS011;39692;53.114;7.060;2022-07-05T14:57:20;4.35;;;1.02;;
53781;SDS011;39692;53.114;7.060;2022-07-05T14:59:45;2.78;;;1.00;;
53781;SDS011;39692;53.114;7.060;2022-07-05T15:02:11;2.65;;;0.93;;
53781;SDS011;39692;53.114;7.060;2022-07-05T15:04:39;7.25;;;1.58;;
53781;SDS011;39692;53.114;7.060;2022-07-05T15:07:05;3.38;;;1.00;;
53781;SDS011;39692;53.114;7.060;2022-07-05T15:09:31;2.75;;;0.95;;
53781;SDS011;39692;53.114;7.060;2022-07-05T15:11:57;2.50;;;1.30;;
53781;SDS011;39692;53.114;7.060;2022-07-05T15:14:27;4.03;;;1.35;;
53781;SDS011;39692;53.114;7.060;2022-07-05T15:16:56;5.43;;;1.20;;
53781;SDS011;39692;53.114;7.060;2022-07-05T15:19:22;12.25;;;1.27;;